createdAt,value
2018-06-16T00:00:00.294Z,6.90
2018-06-16T00:01:00.171Z,8.50
2018-06-16T00:02:00.205Z,8.50
2018-06-16T00:03:00.118Z,9.80
2018-06-16T00:04:00.221Z,7.70
2018-06-16T00:05:00.078Z,7.30
2018-06-16T00:06:00.129Z,7.70
2018-06-16T00:07:00.059Z,6.90
2018-06-16T00:08:00.040Z,9.80
2018-06-16T00:08:59.992Z,7.80
2018-06-16T00:10:00.061Z,6.80
2018-06-16T00:10:59.951Z,9.10
2018-06-16T00:11:59.967Z,10.80
2018-06-16T00:12:59.904Z,8.70
2018-06-16T00:13:59.980Z,11.60
2018-06-16T00:14:59.865Z,8.50
2018-06-16T00:15:59.893Z,9.80
2018-06-16T00:16:59.821Z,9.60
2018-06-16T00:17:59.906Z,8.50
2018-06-16T00:18:59.779Z,7.30
2018-06-16T00:19:59.817Z,7.20
2018-06-16T00:20:59.737Z,8.30
2018-06-16T00:21:59.831Z,10.90
2018-06-16T00:22:59.693Z,7.50
2018-06-16T00:23:59.743Z,10.10
2018-06-16T00:24:59.650Z,10.20
2018-06-16T00:25:59.763Z,9.60
2018-06-16T00:26:59.607Z,9.40
2018-06-16T00:27:59.669Z,7.80
2018-06-16T00:28:59.565Z,7.20
2018-06-16T00:29:59.682Z,10.20
2018-06-16T00:30:59.524Z,9.00
2018-06-16T00:31:59.595Z,8.50
2018-06-16T00:32:59.478Z,8.30
2018-06-16T00:33:59.609Z,9.70
2018-06-16T00:34:59.439Z,8.00
2018-06-16T00:35:59.520Z,8.80
2018-06-16T00:36:59.393Z,9.00
2018-06-16T00:37:59.437Z,10.60
2018-06-16T00:38:59.354Z,8.70
2018-06-16T00:39:59.451Z,9.40
2018-06-16T00:40:59.310Z,7.70
2018-06-16T00:41:59.358Z,9.20
2018-06-16T00:42:59.267Z,8.80
2018-06-16T00:43:59.372Z,11.70
2018-06-16T00:44:59.228Z,10.50
2018-06-16T00:45:59.283Z,9.20
2018-06-16T00:46:59.182Z,9.40
2018-06-16T00:47:59.297Z,11.60
2018-06-16T00:48:59.139Z,9.60
2018-06-16T00:49:59.208Z,10.50
2018-06-16T00:50:59.101Z,10.20
2018-06-16T00:51:59.226Z,10.20
2018-06-16T00:52:59.116Z,10.10
2018-06-16T00:53:59.137Z,9.80
2018-06-16T00:54:59.006Z,11.50
2018-06-16T00:55:59.148Z,9.90
2018-06-16T00:56:58.969Z,9.40
2018-06-16T00:57:59.066Z,11.40
2018-06-16T00:58:58.927Z,10.10
2018-06-16T00:59:59.076Z,9.20
2018-06-16T01:00:58.884Z,9.50
2018-06-16T01:01:58.989Z,10.30
2018-06-16T01:02:58.842Z,11.70
2018-06-16T01:03:58.902Z,10.30
2018-06-16T01:04:58.799Z,10.40
2018-06-16T01:05:58.912Z,8.90
2018-06-16T01:06:58.756Z,11.10
2018-06-16T01:07:58.826Z,11.80
2018-06-16T01:08:58.711Z,10.80
2018-06-16T01:09:58.841Z,9.90
2018-06-16T01:10:58.669Z,11.10
2018-06-16T01:11:58.751Z,10.30
2018-06-16T01:12:58.629Z,10.00
2018-06-16T01:13:58.769Z,13.00
2018-06-16T01:14:58.584Z,9.70
2018-06-16T01:15:58.679Z,10.40
2018-06-16T01:16:58.545Z,10.60
2018-06-16T01:17:58.692Z,12.40
2018-06-16T01:18:58.512Z,9.20
2018-06-16T01:19:58.603Z,10.80
2018-06-16T01:20:58.456Z,12.90
2018-06-16T01:21:58.617Z,10.20
2018-06-16T01:22:58.415Z,11.30
2018-06-16T01:23:58.530Z,9.50
2018-06-16T01:24:58.371Z,11.30
2018-06-16T01:25:58.443Z,10.70
2018-06-16T01:26:58.339Z,12.60
2018-06-16T01:27:58.458Z,12.50
2018-06-16T01:28:58.286Z,10.00
2018-06-16T01:29:58.368Z,10.20
2018-06-16T01:30:58.242Z,10.40
2018-06-16T01:31:58.383Z,9.30
2018-06-16T01:32:58.199Z,10.00
2018-06-16T01:33:58.293Z,10.40
2018-06-16T01:34:58.158Z,9.70
2018-06-16T01:35:58.309Z,8.80
2018-06-16T01:36:58.113Z,9.20
2018-06-16T01:37:58.219Z,10.90
2018-06-16T01:38:58.069Z,9.40
2018-06-16T01:39:58.233Z,11.40
2018-06-16T01:40:58.027Z,9.50
2018-06-16T01:41:58.144Z,8.30
2018-06-16T01:42:57.985Z,10.70
2018-06-16T01:43:58.160Z,10.20
2018-06-16T01:44:57.943Z,12.10
2018-06-16T01:45:58.071Z,10.70
2018-06-16T01:46:57.902Z,11.00
2018-06-16T01:47:58.085Z,8.70
2018-06-16T01:48:57.860Z,9.00
2018-06-16T01:49:57.997Z,11.60
2018-06-16T01:50:57.809Z,9.60
2018-06-16T01:51:57.909Z,10.70
2018-06-16T01:52:57.770Z,10.30
2018-06-16T01:53:57.922Z,11.60
2018-06-16T01:54:57.731Z,11.70
2018-06-16T01:55:57.836Z,11.30
2018-06-16T01:56:57.681Z,11.10
2018-06-16T01:57:57.854Z,10.60
2018-06-16T01:58:57.639Z,10.10
2018-06-16T01:59:57.760Z,11.40
2018-06-16T02:00:57.593Z,10.40
2018-06-16T02:01:57.673Z,9.70
2018-06-16T02:02:57.554Z,10.30
2018-06-16T02:03:57.588Z,9.10
2018-06-16T02:04:57.509Z,9.90
2018-06-16T02:05:57.602Z,10.30
2018-06-16T02:06:57.470Z,9.80
2018-06-16T02:07:57.509Z,10.00
2018-06-16T02:08:57.423Z,9.90
2018-06-16T02:09:57.523Z,10.60
2018-06-16T02:10:57.383Z,10.70
2018-06-16T02:11:57.435Z,12.50
2018-06-16T02:12:57.335Z,12.30
2018-06-16T02:13:57.351Z,10.60
2018-06-16T02:14:57.296Z,11.70
2018-06-16T02:15:57.364Z,9.70
2018-06-16T02:16:57.249Z,11.60
2018-06-16T02:17:57.275Z,14.00
2018-06-16T02:18:57.209Z,13.10
2018-06-16T02:19:57.290Z,10.50
2018-06-16T02:20:57.163Z,10.40
2018-06-16T02:21:57.321Z,11.40
2018-06-16T02:22:57.125Z,11.60
2018-06-16T02:23:57.212Z,11.30
2018-06-16T02:24:57.080Z,10.00
2018-06-16T02:25:57.132Z,11.50
2018-06-16T02:26:57.043Z,11.70
2018-06-16T02:27:57.139Z,11.90
2018-06-16T02:28:56.988Z,9.80
2018-06-16T02:29:57.052Z,10.60
2018-06-16T02:30:56.947Z,11.80
2018-06-16T02:31:57.067Z,12.20
2018-06-16T02:32:56.902Z,13.20
2018-06-16T02:33:56.977Z,13.90
2018-06-16T02:34:56.860Z,10.70
2018-06-16T02:35:56.893Z,10.50
2018-06-16T02:36:56.820Z,13.00
2018-06-16T02:37:56.905Z,11.20
2018-06-16T02:38:56.776Z,13.30
2018-06-16T02:39:56.815Z,11.30
2018-06-16T02:40:56.732Z,11.90
2018-06-16T02:41:56.832Z,13.80
2018-06-16T02:42:56.686Z,13.10
2018-06-16T02:43:56.741Z,14.10
2018-06-16T02:44:56.642Z,12.60
2018-06-16T02:45:56.756Z,13.20
2018-06-16T02:46:56.616Z,13.90
2018-06-16T02:47:56.669Z,14.30
2018-06-16T02:48:56.553Z,17.00
2018-06-16T02:49:56.682Z,12.20
2018-06-16T02:50:56.512Z,15.40
2018-06-16T02:51:56.594Z,13.70
2018-06-16T02:52:56.467Z,12.00
2018-06-16T02:53:56.608Z,16.40
2018-06-16T02:54:56.432Z,14.30
2018-06-16T02:55:56.520Z,14.50
2018-06-16T02:56:56.380Z,17.50
2018-06-16T02:57:56.436Z,15.50
2018-06-16T02:58:56.338Z,14.50
2018-06-16T02:59:56.447Z,16.40
2018-06-16T03:00:56.293Z,17.80
2018-06-16T03:01:56.358Z,18.10
2018-06-16T03:02:56.248Z,15.20
2018-06-16T03:03:56.373Z,14.20
2018-06-16T03:04:56.212Z,17.00
2018-06-16T03:05:56.286Z,18.30
2018-06-16T03:06:56.163Z,16.80
2018-06-16T03:07:56.296Z,18.50
2018-06-16T03:08:56.122Z,19.80
2018-06-16T03:09:56.208Z,20.10
2018-06-16T03:10:56.076Z,18.10
2018-06-16T03:11:56.224Z,19.40
2018-06-16T03:12:56.034Z,20.50
2018-06-16T03:13:56.136Z,15.80
2018-06-16T03:14:55.992Z,19.60
2018-06-16T03:15:56.049Z,19.50
2018-06-16T03:16:55.944Z,20.70
2018-06-16T03:17:56.061Z,19.50
2018-06-16T03:18:55.899Z,19.70
2018-06-16T03:19:55.975Z,18.70
2018-06-16T03:20:55.861Z,21.30
2018-06-16T03:21:55.987Z,18.60
2018-06-16T03:22:55.811Z,20.20
2018-06-16T03:23:55.899Z,19.60
2018-06-16T03:24:55.769Z,20.00
2018-06-16T03:25:55.913Z,21.80
2018-06-16T03:26:55.724Z,20.50
2018-06-16T03:27:55.826Z,18.30
2018-06-16T03:28:55.679Z,22.00
2018-06-16T03:29:55.838Z,19.00
2018-06-16T03:30:55.637Z,18.70
2018-06-16T03:31:55.754Z,20.30
2018-06-16T03:32:55.590Z,20.10
2018-06-16T03:33:55.765Z,19.00
2018-06-16T03:34:55.547Z,17.70
2018-06-16T03:35:55.678Z,21.20
2018-06-16T03:36:55.508Z,24.40
2018-06-16T03:37:55.589Z,20.20
2018-06-16T03:38:55.460Z,17.60
2018-06-16T03:39:55.601Z,22.20
2018-06-16T03:40:55.418Z,20.30
2018-06-16T03:41:55.515Z,21.10
2018-06-16T03:42:55.372Z,21.20
2018-06-16T03:43:55.527Z,18.70
2018-06-16T03:44:55.331Z,21.40
2018-06-16T03:45:55.439Z,20.30
2018-06-16T03:46:55.287Z,24.60
2018-06-16T03:47:55.454Z,21.10
2018-06-16T03:48:55.239Z,20.00
2018-06-16T03:49:55.370Z,21.80
2018-06-16T03:50:55.196Z,21.90
2018-06-16T03:51:55.381Z,25.40
2018-06-16T03:52:55.152Z,21.70
2018-06-16T03:53:55.293Z,26.20
2018-06-16T03:54:55.108Z,24.70
2018-06-16T03:55:55.203Z,22.70
2018-06-16T03:56:55.064Z,23.10
2018-06-16T03:57:55.223Z,24.80
2018-06-16T03:58:55.024Z,23.60
2018-06-16T03:59:55.152Z,23.30
2018-06-16T04:00:54.969Z,24.50
2018-06-16T04:01:55.197Z,27.70
2018-06-16T04:02:54.939Z,27.30
2018-06-16T04:03:54.955Z,25.40
2018-06-16T04:04:54.889Z,23.50
2018-06-16T04:05:54.972Z,24.60
2018-06-16T04:06:54.847Z,28.90
2018-06-16T04:07:54.879Z,28.30
2018-06-16T04:08:54.798Z,25.90
2018-06-16T04:09:54.896Z,28.20
2018-06-16T04:10:54.756Z,27.80
2018-06-16T04:11:54.807Z,26.70
2018-06-16T04:12:54.714Z,25.10
2018-06-16T04:13:54.819Z,28.40
2018-06-16T04:14:54.668Z,25.10
2018-06-16T04:15:54.733Z,28.10
2018-06-16T04:16:54.626Z,27.80
2018-06-16T04:17:54.648Z,26.70
2018-06-16T04:18:54.585Z,28.20
2018-06-16T04:19:54.660Z,25.50
2018-06-16T04:20:54.535Z,28.90
2018-06-16T04:21:54.569Z,27.20
2018-06-16T04:22:54.492Z,24.90
2018-06-16T04:23:54.631Z,28.80
2018-06-16T04:24:54.447Z,30.30
2018-06-16T04:25:54.495Z,28.40
2018-06-16T04:26:54.406Z,26.50
2018-06-16T04:27:54.509Z,25.90
2018-06-16T04:28:54.361Z,26.90
2018-06-16T04:29:54.419Z,25.40
2018-06-16T04:30:54.325Z,30.70
2018-06-16T04:31:54.480Z,28.80
2018-06-16T04:32:54.270Z,26.30
2018-06-16T04:33:54.352Z,27.00
2018-06-16T04:34:54.311Z,29.00
2018-06-16T04:35:54.257Z,26.30
2018-06-16T04:36:54.183Z,29.40
2018-06-16T04:37:54.276Z,28.60
2018-06-16T04:38:54.138Z,23.20
2018-06-16T04:39:54.192Z,25.60
2018-06-16T04:40:54.093Z,28.50
2018-06-16T04:41:54.200Z,30.20
2018-06-16T04:42:54.043Z,27.90
2018-06-16T04:43:54.113Z,24.80
2018-06-16T04:44:54.006Z,27.30
2018-06-16T04:45:54.126Z,24.30
2018-06-16T04:46:53.968Z,29.70
2018-06-16T04:47:54.037Z,27.40
2018-06-16T04:48:53.920Z,25.30
2018-06-16T04:49:54.052Z,28.90
2018-06-16T04:50:53.876Z,27.70
2018-06-16T04:51:53.963Z,23.20
2018-06-16T04:52:53.827Z,29.20
2018-06-16T04:53:53.923Z,26.20
2018-06-16T04:54:53.787Z,27.80
2018-06-16T04:55:53.888Z,27.10
2018-06-16T04:56:53.756Z,27.40
2018-06-16T04:57:53.799Z,28.60
2018-06-16T04:58:53.697Z,28.70
2018-06-16T04:59:53.816Z,28.00
2018-06-16T05:00:53.652Z,28.20
2018-06-16T05:01:53.729Z,30.10
2018-06-16T05:02:53.612Z,28.40
2018-06-16T05:03:53.741Z,31.00
2018-06-16T05:04:53.562Z,27.70
2018-06-16T05:05:53.652Z,29.40
2018-06-16T05:06:53.523Z,26.50
2018-06-16T05:07:53.668Z,29.80
2018-06-16T05:08:53.482Z,28.50
2018-06-16T05:09:53.579Z,26.00
2018-06-16T05:10:53.436Z,33.80
2018-06-16T05:11:53.494Z,25.50
2018-06-16T05:12:53.394Z,28.90
2018-06-16T05:13:53.503Z,25.90
2018-06-16T05:14:53.349Z,30.90
2018-06-16T05:15:53.414Z,30.60
2018-06-16T05:16:53.310Z,31.70
2018-06-16T05:17:53.430Z,31.00
2018-06-16T05:18:53.260Z,31.10
2018-06-16T05:19:53.349Z,29.50
2018-06-16T05:20:53.215Z,36.10
2018-06-16T05:21:53.402Z,35.00
2018-06-16T05:22:53.174Z,31.10
2018-06-16T05:23:53.270Z,32.10
2018-06-16T05:24:53.130Z,26.60
2018-06-16T05:25:53.282Z,30.60
2018-06-16T05:26:53.083Z,30.70
2018-06-16T05:27:53.193Z,29.70
2018-06-16T05:28:53.039Z,29.80
2018-06-16T05:29:53.210Z,30.90
2018-06-16T05:30:52.996Z,31.80
2018-06-16T05:31:53.118Z,32.70
2018-06-16T05:32:52.953Z,32.60
2018-06-16T05:33:53.029Z,30.40
2018-06-16T05:34:52.909Z,31.60
2018-06-16T05:35:53.048Z,32.10
2018-06-16T05:36:52.864Z,34.40
2018-06-16T05:37:52.956Z,28.10
2018-06-16T05:38:52.822Z,31.40
2018-06-16T05:39:52.969Z,31.80
2018-06-16T05:40:52.778Z,33.20
2018-06-16T05:41:52.881Z,31.50
2018-06-16T05:42:52.736Z,30.20
2018-06-16T05:43:52.896Z,32.20
2018-06-16T05:44:52.692Z,35.20
2018-06-16T05:45:52.809Z,29.90
2018-06-16T05:46:52.649Z,31.50
2018-06-16T05:47:52.822Z,29.30
2018-06-16T05:48:52.604Z,29.90
2018-06-16T05:49:52.738Z,27.80
2018-06-16T05:50:52.558Z,31.30
2018-06-16T05:51:52.747Z,33.40
2018-06-16T05:52:52.516Z,30.60
2018-06-16T05:53:52.677Z,29.00
2018-06-16T05:54:52.471Z,27.60
2018-06-16T05:55:52.575Z,27.80
2018-06-16T05:56:52.433Z,31.30
2018-06-16T05:57:52.588Z,30.70
2018-06-16T05:58:52.384Z,28.30
2018-06-16T05:59:52.499Z,29.00
2018-06-16T06:00:52.345Z,28.90
2018-06-16T06:01:52.514Z,29.30
2018-06-16T06:02:52.308Z,32.30
2018-06-16T06:03:52.423Z,30.90
2018-06-16T06:04:52.260Z,28.30
2018-06-16T06:05:52.338Z,31.00
2018-06-16T06:06:52.216Z,32.10
2018-06-16T06:07:52.246Z,29.00
2018-06-16T06:08:52.175Z,31.80
2018-06-16T06:09:52.259Z,29.40
2018-06-16T06:10:52.130Z,31.90
2018-06-16T06:11:52.173Z,27.50
2018-06-16T06:12:52.086Z,31.10
2018-06-16T06:13:52.186Z,34.00
2018-06-16T06:14:52.045Z,30.40
2018-06-16T06:15:52.119Z,28.40
2018-06-16T06:16:52.002Z,32.80
2018-06-16T06:17:52.008Z,30.20
2018-06-16T06:18:51.958Z,31.60
2018-06-16T06:19:52.025Z,31.00
2018-06-16T06:20:51.915Z,27.50
2018-06-16T06:21:51.939Z,31.40
2018-06-16T06:22:51.879Z,28.70
2018-06-16T06:23:51.951Z,30.70
2018-06-16T06:24:51.832Z,31.70
2018-06-16T06:25:51.862Z,31.60
2018-06-16T06:26:51.796Z,31.60
2018-06-16T06:27:51.878Z,30.90
2018-06-16T06:28:51.749Z,31.30
2018-06-16T06:29:51.789Z,30.10
2018-06-16T06:30:51.712Z,30.70
2018-06-16T06:31:51.804Z,29.60
2018-06-16T06:32:51.665Z,32.00
2018-06-16T06:33:51.715Z,33.40
2018-06-16T06:34:51.613Z,34.90
2018-06-16T06:35:51.729Z,31.40
2018-06-16T06:36:51.583Z,31.40
2018-06-16T06:37:51.640Z,31.80
2018-06-16T06:38:51.539Z,30.10
2018-06-16T06:39:51.655Z,30.30
2018-06-16T06:40:51.499Z,29.40
2018-06-16T06:41:51.567Z,36.70
2018-06-16T06:42:51.455Z,33.50
2018-06-16T06:43:51.579Z,30.80
2018-06-16T06:44:51.414Z,31.70
2018-06-16T06:45:51.493Z,33.50
2018-06-16T06:46:51.371Z,31.00
2018-06-16T06:47:51.509Z,27.70
2018-06-16T06:48:51.337Z,34.30
2018-06-16T06:49:51.418Z,34.90
2018-06-16T06:50:51.290Z,31.70
2018-06-16T06:51:51.330Z,34.30
2018-06-16T06:52:51.249Z,31.70
2018-06-16T06:53:51.343Z,31.90
2018-06-16T06:54:51.204Z,31.90
2018-06-16T06:55:51.259Z,29.40
2018-06-16T06:56:51.165Z,30.30
2018-06-16T06:57:51.278Z,30.30
2018-06-16T06:58:51.128Z,31.00
2018-06-16T06:59:51.182Z,30.40
2018-06-16T07:00:51.081Z,29.80
2018-06-16T07:01:51.201Z,31.60
2018-06-16T07:02:51.044Z,25.80
2018-06-16T07:03:51.108Z,32.20
2018-06-16T07:04:51.000Z,27.90
2018-06-16T07:05:51.028Z,29.40
2018-06-16T07:06:50.957Z,27.40
2018-06-16T07:07:51.041Z,26.60
2018-06-16T07:08:50.919Z,26.90
2018-06-16T07:09:50.900Z,29.60
2018-06-16T07:10:50.967Z,29.70
2018-06-16T07:11:50.858Z,26.50
2018-06-16T07:12:50.869Z,28.60
2018-06-16T07:13:50.872Z,26.30
2018-06-16T07:14:50.796Z,28.20
2018-06-16T07:15:50.774Z,25.10
2018-06-16T07:16:51.266Z,27.60
2018-06-16T07:17:50.736Z,30.40
2018-06-16T07:18:50.807Z,30.00
2018-06-16T07:19:50.692Z,25.60
2018-06-16T07:20:50.719Z,28.60
2018-06-16T07:21:50.652Z,28.90
2018-06-16T07:22:50.730Z,29.80
2018-06-16T07:23:50.613Z,29.40
2018-06-16T07:24:50.644Z,28.80
2018-06-16T07:25:50.572Z,26.40
2018-06-16T07:26:50.657Z,26.70
2018-06-16T07:27:50.532Z,25.80
2018-06-16T07:28:50.566Z,28.10
2018-06-16T07:29:50.496Z,26.20
2018-06-16T07:30:51.510Z,26.40
2018-06-16T07:31:50.459Z,24.10
2018-06-16T07:32:50.495Z,22.50
2018-06-16T07:33:50.415Z,24.90
2018-06-16T07:34:50.508Z,23.00
2018-06-16T07:35:50.373Z,24.40
2018-06-16T07:36:50.419Z,24.70
2018-06-16T07:37:50.331Z,22.30
2018-06-16T07:38:50.355Z,23.40
2018-06-16T07:39:50.292Z,24.00
2018-06-16T07:40:50.344Z,25.80
2018-06-16T07:41:50.253Z,23.00
2018-06-16T07:42:50.257Z,27.70
2018-06-16T07:43:50.213Z,25.50
2018-06-16T07:44:50.273Z,21.70
2018-06-16T07:45:50.176Z,23.90
2018-06-16T07:46:50.181Z,21.60
2018-06-16T07:47:50.135Z,25.50
2018-06-16T07:48:50.260Z,23.40
2018-06-16T07:49:50.094Z,22.10
2018-06-16T07:50:50.113Z,23.10
2018-06-16T07:51:50.056Z,21.90
2018-06-16T07:52:50.126Z,21.30
2018-06-16T07:53:50.016Z,23.00
2018-06-16T07:54:50.038Z,21.70
2018-06-16T07:55:49.978Z,21.40
2018-06-16T07:56:50.114Z,19.00
2018-06-16T07:57:49.940Z,20.90
2018-06-16T07:58:49.962Z,22.90
2018-06-16T07:59:49.899Z,23.00
2018-06-16T08:00:49.975Z,21.80
2018-06-16T08:01:49.853Z,21.50
2018-06-16T08:02:49.950Z,22.40
2018-06-16T08:03:49.821Z,22.40
2018-06-16T08:04:49.901Z,21.90
2018-06-16T08:05:49.783Z,19.80
2018-06-16T08:06:49.816Z,19.60
2018-06-16T08:07:49.745Z,19.40
2018-06-16T08:08:49.828Z,21.20
2018-06-16T08:09:49.706Z,19.10
2018-06-16T08:10:49.741Z,21.50
2018-06-16T08:11:49.666Z,21.10
2018-06-16T08:12:49.790Z,21.60
2018-06-16T08:13:49.628Z,22.20
2018-06-16T08:14:49.666Z,20.30
2018-06-16T08:15:49.593Z,19.50
2018-06-16T08:16:49.681Z,21.50
2018-06-16T08:17:49.557Z,19.20
2018-06-16T08:18:49.594Z,19.50
2018-06-16T08:19:49.521Z,19.70
2018-06-16T08:20:49.607Z,23.50
2018-06-16T08:21:49.478Z,24.90
2018-06-16T08:22:49.516Z,18.30
2018-06-16T08:23:49.439Z,22.40
2018-06-16T08:24:49.530Z,24.90
2018-06-16T08:25:49.404Z,21.90
2018-06-16T08:26:49.444Z,23.40
2018-06-16T08:27:49.365Z,22.20
2018-06-16T08:28:49.462Z,21.60
2018-06-16T08:29:49.328Z,21.20
2018-06-16T08:30:49.367Z,20.50
2018-06-16T08:31:49.291Z,23.30
2018-06-16T08:32:49.386Z,19.40
2018-06-16T08:33:49.255Z,21.00
2018-06-16T08:34:49.374Z,23.50
2018-06-16T08:35:49.218Z,21.10
2018-06-16T08:36:49.321Z,17.80
2018-06-16T08:37:49.188Z,17.80
2018-06-16T08:38:49.220Z,22.30
2018-06-16T08:39:49.143Z,20.50
2018-06-16T08:40:49.239Z,20.20
2018-06-16T08:41:49.124Z,20.90
2018-06-16T08:42:49.146Z,18.90
2018-06-16T08:43:49.071Z,22.40
2018-06-16T08:44:49.167Z,18.70
2018-06-16T08:45:49.036Z,20.80
2018-06-16T08:46:49.071Z,20.40
2018-06-16T08:47:48.998Z,16.10
2018-06-16T08:48:49.086Z,18.00
2018-06-16T08:49:48.966Z,15.10
2018-06-16T08:50:48.997Z,17.20
2018-06-16T08:51:48.928Z,15.10
2018-06-16T08:52:49.011Z,18.40
2018-06-16T08:53:48.894Z,16.90
2018-06-16T08:54:48.924Z,17.30
2018-06-16T08:55:48.872Z,18.80
2018-06-16T08:56:48.937Z,19.00
2018-06-16T08:57:48.824Z,19.00
2018-06-16T08:58:48.849Z,17.30
2018-06-16T08:59:48.788Z,15.90
2018-06-16T09:00:48.864Z,17.30
2018-06-16T09:01:48.756Z,20.10
2018-06-16T09:02:48.776Z,17.90
2018-06-16T09:03:48.717Z,17.60
2018-06-16T09:04:48.789Z,15.50
2018-06-16T09:05:48.686Z,18.30
2018-06-16T09:06:48.701Z,16.80
2018-06-16T09:07:48.649Z,16.60
2018-06-16T09:08:48.716Z,13.80
2018-06-16T09:09:48.617Z,14.10
2018-06-16T09:10:48.627Z,12.40
2018-06-16T09:11:48.580Z,14.20
2018-06-16T09:12:48.642Z,14.10
2018-06-16T09:13:48.546Z,14.50
2018-06-16T09:14:48.552Z,14.70
2018-06-16T09:15:48.518Z,13.00
2018-06-16T09:16:48.568Z,14.10
2018-06-16T09:17:48.481Z,14.30
2018-06-16T09:18:48.481Z,16.30
2018-06-16T09:19:48.444Z,14.40
2018-06-16T09:20:49.518Z,13.60
2018-06-16T09:21:48.422Z,15.90
2018-06-16T09:22:48.508Z,15.60
2018-06-16T09:23:48.399Z,13.00
2018-06-16T09:24:48.424Z,14.70
2018-06-16T09:25:48.346Z,12.40
2018-06-16T09:26:48.439Z,12.80
2018-06-16T09:27:48.314Z,14.90
2018-06-16T09:28:48.347Z,13.50
2018-06-16T09:29:48.278Z,15.20
2018-06-16T09:30:48.364Z,10.90
2018-06-16T09:31:48.258Z,14.10
2018-06-16T09:32:48.271Z,13.00
2018-06-16T09:33:48.212Z,14.20
2018-06-16T09:34:48.283Z,10.40
2018-06-16T09:35:48.181Z,12.50
2018-06-16T09:36:48.201Z,11.40
2018-06-16T09:37:48.147Z,13.30
2018-06-16T09:38:48.214Z,10.90
2018-06-16T09:39:48.114Z,10.50
2018-06-16T09:40:48.126Z,11.90
2018-06-16T09:41:48.082Z,12.80
2018-06-16T09:42:48.142Z,16.00
2018-06-16T09:43:48.056Z,10.50
2018-06-16T09:44:48.052Z,10.80
2018-06-16T09:45:48.024Z,11.20
2018-06-16T09:46:48.067Z,11.30
2018-06-16T09:47:47.991Z,10.00
2018-06-16T09:48:48.080Z,13.70
2018-06-16T09:49:47.953Z,11.10
2018-06-16T09:50:47.990Z,10.00
2018-06-16T09:51:47.928Z,11.40
2018-06-16T09:52:48.004Z,8.80
2018-06-16T09:53:47.892Z,7.70
2018-06-16T09:54:47.916Z,10.70
2018-06-16T09:55:47.861Z,9.40
2018-06-16T09:56:47.933Z,9.20
2018-06-16T09:57:47.829Z,11.80
2018-06-16T09:58:47.843Z,10.50
2018-06-16T09:59:47.804Z,12.80
2018-06-16T10:00:47.857Z,9.30
2018-06-16T10:01:47.771Z,10.50
2018-06-16T10:02:47.769Z,9.00
2018-06-16T10:03:47.737Z,9.60
2018-06-16T10:04:47.785Z,8.70
2018-06-16T10:05:47.709Z,10.00
2018-06-16T10:06:47.794Z,9.20
2018-06-16T10:07:47.676Z,7.10
2018-06-16T10:08:47.708Z,10.40
2018-06-16T10:09:47.648Z,9.00
2018-06-16T10:10:47.722Z,12.00
2018-06-16T10:11:47.616Z,13.90
2018-06-16T10:12:47.637Z,7.60
2018-06-16T10:13:47.589Z,8.00
2018-06-16T10:14:47.647Z,7.70
2018-06-16T10:15:47.558Z,9.80
2018-06-16T10:16:47.558Z,8.80
2018-06-16T10:17:47.529Z,8.00
2018-06-16T10:18:47.573Z,5.50
2018-06-16T10:19:47.500Z,9.20
2018-06-16T10:20:47.589Z,8.70
2018-06-16T10:21:47.471Z,9.70
2018-06-16T10:22:47.507Z,9.20
2018-06-16T10:23:47.441Z,9.10
2018-06-16T10:24:47.515Z,10.00
2018-06-16T10:25:47.415Z,10.80
2018-06-16T10:26:47.427Z,9.30
2018-06-16T10:27:47.384Z,11.80
2018-06-16T10:28:47.439Z,11.10
2018-06-16T10:29:47.354Z,10.60
2018-06-16T10:30:47.456Z,9.50
2018-06-16T10:31:47.390Z,11.30
2018-06-16T10:32:47.366Z,11.50
2018-06-16T10:33:47.300Z,11.60
2018-06-16T10:34:47.383Z,10.90
2018-06-16T10:35:47.272Z,10.10
2018-06-16T10:36:47.292Z,9.90
2018-06-16T10:37:47.241Z,9.80
2018-06-16T10:38:47.305Z,10.00
2018-06-16T10:39:47.214Z,9.90
2018-06-16T10:40:47.220Z,8.20
2018-06-16T10:41:47.185Z,8.90
2018-06-16T10:42:47.231Z,10.30
2018-06-16T10:43:47.157Z,9.80
2018-06-16T10:44:47.245Z,9.10
2018-06-16T10:45:47.124Z,11.30
2018-06-16T10:46:47.155Z,11.10
2018-06-16T10:47:47.101Z,9.10
2018-06-16T10:48:47.171Z,6.80
2018-06-16T10:49:47.068Z,8.20
2018-06-16T10:50:47.085Z,9.60
2018-06-16T10:51:47.038Z,9.60
2018-06-16T10:52:47.097Z,10.20
2018-06-16T10:53:47.005Z,9.00
2018-06-16T10:54:47.009Z,11.70
2018-06-16T10:55:46.979Z,9.70
2018-06-16T10:56:47.025Z,8.40
2018-06-16T10:57:46.946Z,11.40
2018-06-16T10:58:47.036Z,12.40
2018-06-16T10:59:46.918Z,10.20
2018-06-16T11:00:46.949Z,7.20
2018-06-16T11:01:46.888Z,8.80
2018-06-16T11:02:46.964Z,10.10
2018-06-16T11:03:46.858Z,9.20
2018-06-16T11:04:46.876Z,9.30
2018-06-16T11:05:46.827Z,7.10
2018-06-16T11:06:46.890Z,7.70
2018-06-16T11:07:46.795Z,15.30
2018-06-16T11:08:46.800Z,12.20
2018-06-16T11:09:46.769Z,9.10
2018-06-16T11:10:46.818Z,9.10
2018-06-16T11:11:46.737Z,11.70
2018-06-16T11:12:46.829Z,12.10
2018-06-16T11:13:46.705Z,12.10
2018-06-16T11:14:46.741Z,10.60
2018-06-16T11:15:46.675Z,9.90
2018-06-16T11:16:46.757Z,11.00
2018-06-16T11:17:46.649Z,10.90
2018-06-16T11:18:46.668Z,11.50
2018-06-16T11:19:46.615Z,9.50
2018-06-16T11:20:46.681Z,11.50
2018-06-16T11:21:46.583Z,12.30
2018-06-16T11:22:46.594Z,11.50
2018-06-16T11:23:46.555Z,11.10
2018-06-16T11:24:46.607Z,9.30
2018-06-16T11:25:46.526Z,10.90
2018-06-16T11:26:46.634Z,11.10
2018-06-16T11:27:46.496Z,9.70
2018-06-16T11:28:46.532Z,8.90
2018-06-16T11:29:46.465Z,9.70
2018-06-16T11:30:46.547Z,10.60
2018-06-16T11:31:46.439Z,9.70
2018-06-16T11:32:46.458Z,11.40
2018-06-16T11:33:46.406Z,9.20
2018-06-16T11:34:46.474Z,10.60
2018-06-16T11:35:46.376Z,10.70
2018-06-16T11:36:46.385Z,11.20
2018-06-16T11:37:46.347Z,13.50
2018-06-16T11:38:46.399Z,11.20
2018-06-16T11:39:46.317Z,12.10
2018-06-16T11:40:46.415Z,13.10
2018-06-16T11:41:46.289Z,9.10
2018-06-16T11:42:46.324Z,12.30
2018-06-16T11:43:46.258Z,11.10
2018-06-16T11:44:46.340Z,10.40
2018-06-16T11:45:46.230Z,11.40
2018-06-16T11:46:46.250Z,11.60
2018-06-16T11:47:46.201Z,10.60
2018-06-16T11:48:46.272Z,11.90
2018-06-16T11:49:46.173Z,11.90
2018-06-16T11:50:46.176Z,11.80
2018-06-16T11:51:46.142Z,13.10
2018-06-16T11:52:46.196Z,13.50
2018-06-16T11:53:46.112Z,10.90
2018-06-16T11:54:46.209Z,13.70
2018-06-16T11:55:46.086Z,11.10
2018-06-16T11:56:46.121Z,11.30
2018-06-16T11:57:46.060Z,13.30
2018-06-16T11:58:46.133Z,11.50
2018-06-16T11:59:46.028Z,13.00
2018-06-16T12:00:46.047Z,11.40
2018-06-16T12:01:46.001Z,12.00
2018-06-16T12:02:46.068Z,12.50
2018-06-16T12:03:45.973Z,12.30
2018-06-16T12:04:46.071Z,9.90
2018-06-16T12:05:45.946Z,11.10
2018-06-16T12:06:45.987Z,12.20
2018-06-16T12:07:45.920Z,9.90
2018-06-16T12:08:46.008Z,10.40
2018-06-16T12:09:45.891Z,10.10
2018-06-16T12:10:45.908Z,9.60
2018-06-16T12:11:45.863Z,7.70
2018-06-16T12:12:45.926Z,9.30
2018-06-16T12:13:45.838Z,8.80
2018-06-16T12:14:45.938Z,10.10
2018-06-16T12:15:45.809Z,9.30
2018-06-16T12:16:45.852Z,10.50
2018-06-16T12:17:45.781Z,10.10
2018-06-16T12:18:45.866Z,8.70
2018-06-16T12:19:45.753Z,12.00
2018-06-16T12:20:45.778Z,13.40
2018-06-16T12:21:45.727Z,9.80
2018-06-16T12:22:45.791Z,11.00
2018-06-16T12:23:45.700Z,10.90
2018-06-16T12:24:45.803Z,8.50
2018-06-16T12:25:45.671Z,9.30
2018-06-16T12:26:45.718Z,8.20
2018-06-16T12:27:45.643Z,9.40
2018-06-16T12:28:45.730Z,8.90
2018-06-16T12:29:45.634Z,9.40
2018-06-16T12:30:45.640Z,9.10
2018-06-16T12:31:45.587Z,10.10
2018-06-16T12:32:45.653Z,7.90
2018-06-16T12:33:45.564Z,8.30
2018-06-16T12:34:45.565Z,8.90
2018-06-16T12:35:45.538Z,7.70
2018-06-16T12:36:45.580Z,9.40
2018-06-16T12:37:45.511Z,9.50
2018-06-16T12:38:45.595Z,7.50
2018-06-16T12:39:45.524Z,9.50
2018-06-16T12:40:45.506Z,8.90
2018-06-16T12:41:45.457Z,9.00
2018-06-16T12:42:45.521Z,8.70
2018-06-16T12:43:45.433Z,7.10
2018-06-16T12:44:45.432Z,6.30
2018-06-16T12:45:45.406Z,9.20
2018-06-16T12:46:45.444Z,9.40
2018-06-16T12:47:45.387Z,8.20
2018-06-16T12:48:45.460Z,6.40
2018-06-16T12:49:45.358Z,8.00
2018-06-16T12:50:45.375Z,4.90
2018-06-16T12:51:45.331Z,6.40
2018-06-16T12:52:45.388Z,7.40
2018-06-16T12:53:45.307Z,7.10
2018-06-16T12:54:45.423Z,7.30
2018-06-16T12:55:45.282Z,6.70
2018-06-16T12:56:45.368Z,7.90
2018-06-16T12:57:45.261Z,7.30